sensor_id;sensor_type;location;lat;lon;timestamp;P1;durP1;ratioP1;P2;durP2;ratioP2
253;SDS011;590;48.772;8.846;2022-08-21T00:01:02;3.77;;;3.50;;
253;SDS011;590;48.772;8.846;2022-08-21T00:03:32;4.23;;;3.97;;
253;SDS011;590;48.772;8.846;2022-08-21T00:06:00;3.63;;;3.43;;
253;SDS011;590;48.772;8.846;2022-08-21T00:08:29;3.77;;;3.63;;
253;SDS011;590;48.772;8.846;2022-08-21T00:10:58;4.27;;;4.00;;
253;SDS011;590;48.772;8.846;2022-08-21T00:13:26;3.67;;;3.47;;
253;SDS011;590;48.772;8.846;2022-08-21T00:15:54;4.00;;;3.80;;
253;SDS011;590;48.772;8.846;2022-08-21T00:18:22;3.53;;;3.33;;
253;SDS011;590;48.772;8.846;2022-08-21T00:20:50;3.87;;;3.67;;
253;SDS011;590;48.772;8.846;2022-08-21T00:23:19;4.00;;;3.80;;
253;SDS011;590;48.772;8.846;2022-08-21T00:25:47;2.87;;;2.67;;
253;SDS011;590;48.772;8.846;2022-08-21T00:28:17;2.93;;;2.73;;
253;SDS011;590;48.772;8.846;2022-08-21T00:30:45;3.17;;;2.97;;
253;SDS011;590;48.772;8.846;2022-08-21T00:33:13;4.23;;;3.07;;
253;SDS011;590;48.772;8.846;2022-08-21T00:35:42;3.43;;;3.23;;
253;SDS011;590;48.772;8.846;2022-08-21T00:38:10;5.43;;;3.50;;
253;SDS011;590;48.772;8.846;2022-08-21T00:40:40;3.70;;;3.50;;
253;SDS011;590;48.772;8.846;2022-08-21T00:43:10;5.00;;;3.33;;
253;SDS011;590;48.772;8.846;2022-08-21T00:45:41;4.10;;;3.90;;
253;SDS011;590;48.772;8.846;2022-08-21T00:48:10;4.97;;;3.57;;
253;SDS011;590;48.772;8.846;2022-08-21T00:50:40;5.23;;;3.70;;
253;SDS011;590;48.772;8.846;2022-08-21T00:53:12;3.90;;;3.70;;
253;SDS011;590;48.772;8.846;2022-08-21T00:55:41;3.83;;;3.60;;
253;SDS011;590;48.772;8.846;2022-08-21T00:58:11;4.03;;;3.70;;
253;SDS011;590;48.772;8.846;2022-08-21T01:00:44;3.50;;;3.30;;
253;SDS011;590;48.772;8.846;2022-08-21T01:03:15;3.33;;;3.13;;
253;SDS011;590;48.772;8.846;2022-08-21T01:05:49;4.17;;;3.37;;
253;SDS011;590;48.772;8.846;2022-08-21T01:08:18;4.17;;;3.93;;
253;SDS011;590;48.772;8.846;2022-08-21T01:10:47;3.53;;;3.33;;
253;SDS011;590;48.772;8.846;2022-08-21T01:13:20;3.33;;;3.13;;
253;SDS011;590;48.772;8.846;2022-08-21T01:15:52;5.43;;;5.13;;
253;SDS011;590;48.772;8.846;2022-08-21T01:18:23;4.57;;;4.27;;
253;SDS011;590;48.772;8.846;2022-08-21T01:20:59;4.50;;;4.20;;
253;SDS011;590;48.772;8.846;2022-08-21T01:23:33;4.10;;;3.90;;
253;SDS011;590;48.772;8.846;2022-08-21T01:26:02;4.40;;;4.10;;
253;SDS011;590;48.772;8.846;2022-08-21T01:28:32;4.07;;;3.87;;
253;SDS011;590;48.772;8.846;2022-08-21T01:31:03;3.30;;;3.10;;
253;SDS011;590;48.772;8.846;2022-08-21T01:33:34;3.53;;;3.33;;
253;SDS011;590;48.772;8.846;2022-08-21T01:36:05;3.63;;;3.43;;
253;SDS011;590;48.772;8.846;2022-08-21T01:38:33;3.67;;;3.47;;
253;SDS011;590;48.772;8.846;2022-08-21T01:41:01;5.20;;;4.90;;
253;SDS011;590;48.772;8.846;2022-08-21T01:43:29;4.80;;;4.50;;
253;SDS011;590;48.772;8.846;2022-08-21T01:46:05;4.67;;;4.37;;
253;SDS011;590;48.772;8.846;2022-08-21T01:48:33;4.67;;;4.37;;
253;SDS011;590;48.772;8.846;2022-08-21T01:51:01;4.97;;;4.67;;
253;SDS011;590;48.772;8.846;2022-08-21T01:53:31;4.83;;;4.40;;
253;SDS011;590;48.772;8.846;2022-08-21T01:56:00;3.90;;;3.70;;
253;SDS011;590;48.772;8.846;2022-08-21T01:58:28;5.13;;;4.03;;
253;SDS011;590;48.772;8.846;2022-08-21T02:00:57;4.73;;;4.43;;
253;SDS011;590;48.772;8.846;2022-08-21T02:03:25;4.00;;;3.80;;
253;SDS011;590;48.772;8.846;2022-08-21T02:06:01;3.87;;;3.70;;
253;SDS011;590;48.772;8.846;2022-08-21T02:08:29;4.93;;;3.73;;
253;SDS011;590;48.772;8.846;2022-08-21T02:10:59;4.77;;;3.40;;
253;SDS011;590;48.772;8.846;2022-08-21T02:13:28;4.37;;;3.87;;
253;SDS011;590;48.772;8.846;2022-08-21T02:15:55;3.50;;;3.30;;
253;SDS011;590;48.772;8.846;2022-08-21T02:18:24;4.17;;;3.83;;
253;SDS011;590;48.772;8.846;2022-08-21T02:20:52;4.80;;;4.50;;
253;SDS011;590;48.772;8.846;2022-08-21T02:23:22;4.00;;;3.80;;
253;SDS011;590;48.772;8.846;2022-08-21T02:25:54;3.53;;;3.33;;
253;SDS011;590;48.772;8.846;2022-08-21T02:28:22;4.33;;;4.03;;
253;SDS011;590;48.772;8.846;2022-08-21T02:30:53;3.83;;;3.67;;
253;SDS011;590;48.772;8.846;2022-08-21T02:33:22;4.37;;;3.27;;
253;SDS011;590;48.772;8.846;2022-08-21T02:35:51;4.23;;;3.77;;
253;SDS011;590;48.772;8.846;2022-08-21T02:38:21;4.67;;;4.37;;
253;SDS011;590;48.772;8.846;2022-08-21T02:40:51;3.90;;;3.70;;
253;SDS011;590;48.772;8.846;2022-08-21T02:43:22;5.27;;;4.97;;
253;SDS011;590;48.772;8.846;2022-08-21T02:45:51;4.50;;;4.30;;
253;SDS011;590;48.772;8.846;2022-08-21T02:48:22;4.10;;;3.90;;
253;SDS011;590;48.772;8.846;2022-08-21T02:50:54;4.70;;;4.40;;
253;SDS011;590;48.772;8.846;2022-08-21T02:53:23;4.97;;;4.70;;
253;SDS011;590;48.772;8.846;2022-08-21T02:55:53;4.97;;;4.67;;
253;SDS011;590;48.772;8.846;2022-08-21T02:58:25;4.50;;;4.03;;
253;SDS011;590;48.772;8.846;2022-08-21T03:00:54;4.57;;;4.27;;
253;SDS011;590;48.772;8.846;2022-08-21T03:03:22;6.90;;;5.37;;
253;SDS011;590;48.772;8.846;2022-08-21T03:05:51;4.70;;;4.37;;
253;SDS011;590;48.772;8.846;2022-08-21T03:08:19;5.33;;;5.03;;
253;SDS011;590;48.772;8.846;2022-08-21T03:10:52;5.30;;;5.00;;
253;SDS011;590;48.772;8.846;2022-08-21T03:13:21;5.37;;;5.07;;
253;SDS011;590;48.772;8.846;2022-08-21T03:15:49;6.00;;;5.70;;
253;SDS011;590;48.772;8.846;2022-08-21T03:18:18;5.70;;;5.17;;
253;SDS011;590;48.772;8.846;2022-08-21T03:20:46;5.50;;;5.20;;
253;SDS011;590;48.772;8.846;2022-08-21T03:23:14;5.63;;;5.33;;
253;SDS011;590;48.772;8.846;2022-08-21T03:25:45;5.40;;;5.10;;
253;SDS011;590;48.772;8.846;2022-08-21T03:28:16;5.20;;;4.90;;
253;SDS011;590;48.772;8.846;2022-08-21T03:30:48;5.37;;;5.07;;
253;SDS011;590;48.772;8.846;2022-08-21T03:33:17;4.50;;;4.20;;
253;SDS011;590;48.772;8.846;2022-08-21T03:35:51;4.50;;;4.20;;
253;SDS011;590;48.772;8.846;2022-08-21T03:38:24;4.57;;;4.27;;
253;SDS011;590;48.772;8.846;2022-08-21T03:40:53;5.07;;;4.77;;
253;SDS011;590;48.772;8.846;2022-08-21T03:43:22;4.90;;;4.60;;
253;SDS011;590;48.772;8.846;2022-08-21T03:45:50;4.53;;;4.23;;
253;SDS011;590;48.772;8.846;2022-08-21T03:48:18;4.53;;;4.23;;
253;SDS011;590;48.772;8.846;2022-08-21T03:50:47;4.37;;;4.07;;
253;SDS011;590;48.772;8.846;2022-08-21T03:53:15;4.70;;;4.40;;
253;SDS011;590;48.772;8.846;2022-08-21T03:55:44;5.90;;;4.60;;
253;SDS011;590;48.772;8.846;2022-08-21T03:58:14;5.07;;;4.77;;
253;SDS011;590;48.772;8.846;2022-08-21T04:00:45;5.37;;;5.07;;
253;SDS011;590;48.772;8.846;2022-08-21T04:03:14;5.33;;;5.03;;
253;SDS011;590;48.772;8.846;2022-08-21T04:05:42;5.50;;;5.20;;
253;SDS011;590;48.772;8.846;2022-08-21T04:08:12;5.87;;;5.57;;
253;SDS011;590;48.772;8.846;2022-08-21T04:10:41;5.07;;;4.73;;
253;SDS011;590;48.772;8.846;2022-08-21T04:13:12;6.60;;;5.60;;
253;SDS011;590;48.772;8.846;2022-08-21T04:15:40;4.60;;;4.30;;
253;SDS011;590;48.772;8.846;2022-08-21T04:18:10;5.13;;;4.83;;
253;SDS011;590;48.772;8.846;2022-08-21T04:20:39;4.37;;;4.07;;
253;SDS011;590;48.772;8.846;2022-08-21T04:23:15;4.53;;;4.23;;
253;SDS011;590;48.772;8.846;2022-08-21T04:25:49;4.10;;;3.90;;
253;SDS011;590;48.772;8.846;2022-08-21T04:28:18;5.03;;;4.73;;
253;SDS011;590;48.772;8.846;2022-08-21T04:30:48;5.00;;;4.70;;
253;SDS011;590;48.772;8.846;2022-08-21T04:33:19;5.13;;;4.17;;
253;SDS011;590;48.772;8.846;2022-08-21T04:35:47;5.07;;;4.77;;
253;SDS011;590;48.772;8.846;2022-08-21T04:38:16;6.00;;;5.70;;
253;SDS011;590;48.772;8.846;2022-08-21T04:40:45;4.37;;;4.07;;
253;SDS011;590;48.772;8.846;2022-08-21T04:43:13;4.73;;;4.43;;
253;SDS011;590;48.772;8.846;2022-08-21T04:45:42;5.73;;;4.23;;
253;SDS011;590;48.772;8.846;2022-08-21T04:48:12;4.63;;;4.33;;
253;SDS011;590;48.772;8.846;2022-08-21T04:50:43;4.03;;;3.83;;
253;SDS011;590;48.772;8.846;2022-08-21T04:53:17;4.47;;;4.17;;
253;SDS011;590;48.772;8.846;2022-08-21T04:55:49;5.07;;;4.77;;
253;SDS011;590;48.772;8.846;2022-08-21T04:58:20;3.47;;;3.27;;
253;SDS011;590;48.772;8.846;2022-08-21T05:00:50;3.80;;;3.60;;
253;SDS011;590;48.772;8.846;2022-08-21T05:03:21;3.90;;;3.70;;
253;SDS011;590;48.772;8.846;2022-08-21T05:05:51;4.60;;;4.30;;
253;SDS011;590;48.772;8.846;2022-08-21T05:08:20;4.63;;;4.20;;
253;SDS011;590;48.772;8.846;2022-08-21T05:10:51;4.37;;;4.03;;
253;SDS011;590;48.772;8.846;2022-08-21T05:13:25;4.33;;;4.03;;
253;SDS011;590;48.772;8.846;2022-08-21T05:15:53;4.63;;;4.33;;
253;SDS011;590;48.772;8.846;2022-08-21T05:18:21;4.43;;;4.13;;
253;SDS011;590;48.772;8.846;2022-08-21T05:20:51;3.97;;;3.77;;
253;SDS011;590;48.772;8.846;2022-08-21T05:23:19;4.30;;;4.00;;
253;SDS011;590;48.772;8.846;2022-08-21T05:25:47;4.47;;;4.13;;
253;SDS011;590;48.772;8.846;2022-08-21T05:28:15;4.70;;;4.40;;
253;SDS011;590;48.772;8.846;2022-08-21T05:30:45;4.60;;;4.33;;
253;SDS011;590;48.772;8.846;2022-08-21T05:33:13;4.70;;;4.40;;
253;SDS011;590;48.772;8.846;2022-08-21T05:35:41;3.90;;;3.70;;
253;SDS011;590;48.772;8.846;2022-08-21T05:38:11;3.63;;;3.43;;
253;SDS011;590;48.772;8.846;2022-08-21T05:40:44;4.63;;;4.33;;
253;SDS011;590;48.772;8.846;2022-08-21T05:43:12;4.50;;;4.07;;
253;SDS011;590;48.772;8.846;2022-08-21T05:45:41;3.83;;;3.63;;
253;SDS011;590;48.772;8.846;2022-08-21T05:48:10;3.63;;;3.43;;
253;SDS011;590;48.772;8.846;2022-08-21T05:50:39;3.47;;;3.33;;
253;SDS011;590;48.772;8.846;2022-08-21T05:53:08;3.97;;;3.77;;
253;SDS011;590;48.772;8.846;2022-08-21T05:55:39;4.00;;;3.80;;
253;SDS011;590;48.772;8.846;2022-08-21T05:58:11;3.60;;;3.40;;
253;SDS011;590;48.772;8.846;2022-08-21T06:00:39;4.03;;;3.57;;
253;SDS011;590;48.772;8.846;2022-08-21T06:03:10;3.87;;;3.67;;
253;SDS011;590;48.772;8.846;2022-08-21T06:05:39;3.43;;;3.23;;
253;SDS011;590;48.772;8.846;2022-08-21T06:08:07;3.80;;;3.60;;
253;SDS011;590;48.772;8.846;2022-08-21T06:10:36;4.00;;;3.80;;
253;SDS011;590;48.772;8.846;2022-08-21T06:13:05;4.60;;;4.10;;
253;SDS011;590;48.772;8.846;2022-08-21T06:15:33;3.20;;;3.00;;
253;SDS011;590;48.772;8.846;2022-08-21T06:18:01;3.37;;;3.20;;
253;SDS011;590;48.772;8.846;2022-08-21T06:20:30;3.50;;;3.30;;
253;SDS011;590;48.772;8.846;2022-08-21T06:22:58;4.00;;;3.10;;
253;SDS011;590;48.772;8.846;2022-08-21T06:25:27;3.20;;;3.00;;
253;SDS011;590;48.772;8.846;2022-08-21T06:28:01;3.20;;;3.00;;
253;SDS011;590;48.772;8.846;2022-08-21T06:30:30;3.40;;;3.20;;
253;SDS011;590;48.772;8.846;2022-08-21T06:32:58;4.10;;;3.90;;
253;SDS011;590;48.772;8.846;2022-08-21T06:35:26;3.83;;;3.63;;
253;SDS011;590;48.772;8.846;2022-08-21T06:37:55;4.20;;;3.30;;
253;SDS011;590;48.772;8.846;2022-08-21T06:40:24;3.80;;;3.60;;
253;SDS011;590;48.772;8.846;2022-08-21T06:42:55;3.30;;;3.10;;
253;SDS011;590;48.772;8.846;2022-08-21T06:45:25;3.40;;;3.20;;
253;SDS011;590;48.772;8.846;2022-08-21T06:47:57;3.60;;;3.40;;
253;SDS011;590;48.772;8.846;2022-08-21T06:50:25;3.27;;;2.90;;
253;SDS011;590;48.772;8.846;2022-08-21T06:52:57;3.70;;;3.50;;
253;SDS011;590;48.772;8.846;2022-08-21T06:55:26;3.37;;;3.17;;
253;SDS011;590;48.772;8.846;2022-08-21T06:57:55;3.13;;;2.93;;
253;SDS011;590;48.772;8.846;2022-08-21T07:00:24;2.80;;;2.60;;
253;SDS011;590;48.772;8.846;2022-08-21T07:02:52;3.13;;;2.93;;
253;SDS011;590;48.772;8.846;2022-08-21T07:05:21;5.20;;;3.20;;
253;SDS011;590;48.772;8.846;2022-08-21T07:07:49;3.03;;;2.83;;
253;SDS011;590;48.772;8.846;2022-08-21T07:10:17;3.43;;;3.30;;
253;SDS011;590;48.772;8.846;2022-08-21T07:12:48;3.53;;;2.93;;
253;SDS011;590;48.772;8.846;2022-08-21T07:15:28;3.47;;;2.83;;
253;SDS011;590;48.772;8.846;2022-08-21T07:17:56;3.60;;;3.40;;
253;SDS011;590;48.772;8.846;2022-08-21T07:20:25;3.63;;;3.43;;
253;SDS011;590;48.772;8.846;2022-08-21T07:22:55;3.57;;;3.40;;
253;SDS011;590;48.772;8.846;2022-08-21T07:25:25;3.60;;;3.40;;
253;SDS011;590;48.772;8.846;2022-08-21T07:27:53;4.23;;;3.33;;
253;SDS011;590;48.772;8.846;2022-08-21T07:30:21;4.03;;;3.83;;
253;SDS011;590;48.772;8.846;2022-08-21T07:32:51;3.33;;;3.13;;
253;SDS011;590;48.772;8.846;2022-08-21T07:35:20;6.50;;;3.80;;
253;SDS011;590;48.772;8.846;2022-08-21T07:37:49;3.97;;;3.77;;
253;SDS011;590;48.772;8.846;2022-08-21T07:40:17;4.17;;;3.93;;
253;SDS011;590;48.772;8.846;2022-08-21T07:42:46;3.87;;;3.40;;
253;SDS011;590;48.772;8.846;2022-08-21T07:45:18;4.10;;;3.70;;
253;SDS011;590;48.772;8.846;2022-08-21T07:47:48;6.20;;;3.50;;
253;SDS011;590;48.772;8.846;2022-08-21T07:50:24;4.43;;;4.10;;
253;SDS011;590;48.772;8.846;2022-08-21T07:52:52;3.70;;;3.50;;
253;SDS011;590;48.772;8.846;2022-08-21T07:55:21;3.60;;;3.40;;
253;SDS011;590;48.772;8.846;2022-08-21T07:57:49;3.87;;;3.47;;
253;SDS011;590;48.772;8.846;2022-08-21T08:00:18;4.23;;;4.03;;
253;SDS011;590;48.772;8.846;2022-08-21T08:02:49;6.87;;;4.83;;
253;SDS011;590;48.772;8.846;2022-08-21T08:05:21;3.63;;;3.43;;
253;SDS011;590;48.772;8.846;2022-08-21T08:07:52;4.13;;;3.90;;
253;SDS011;590;48.772;8.846;2022-08-21T08:10:21;5.70;;;4.47;;
253;SDS011;590;48.772;8.846;2022-08-21T08:12:51;4.50;;;3.37;;
253;SDS011;590;48.772;8.846;2022-08-21T08:15:22;4.13;;;3.60;;
253;SDS011;590;48.772;8.846;2022-08-21T08:17:53;3.33;;;2.87;;
253;SDS011;590;48.772;8.846;2022-08-21T08:20:21;3.87;;;3.07;;
253;SDS011;590;48.772;8.846;2022-08-21T08:22:52;4.37;;;3.17;;
253;SDS011;590;48.772;8.846;2022-08-21T08:25:21;3.80;;;3.60;;
253;SDS011;590;48.772;8.846;2022-08-21T08:27:50;4.53;;;4.23;;
253;SDS011;590;48.772;8.846;2022-08-21T08:30:18;3.63;;;3.43;;
253;SDS011;590;48.772;8.846;2022-08-21T08:32:48;5.00;;;3.70;;
253;SDS011;590;48.772;8.846;2022-08-21T08:35:16;4.33;;;4.03;;
253;SDS011;590;48.772;8.846;2022-08-21T08:37:49;3.70;;;3.50;;
253;SDS011;590;48.772;8.846;2022-08-21T08:40:20;3.23;;;3.03;;
253;SDS011;590;48.772;8.846;2022-08-21T08:42:55;9.93;;;3.30;;
253;SDS011;590;48.772;8.846;2022-08-21T08:45:23;4.67;;;4.40;;
253;SDS011;590;48.772;8.846;2022-08-21T08:47:53;3.77;;;3.40;;
253;SDS011;590;48.772;8.846;2022-08-21T08:50:25;3.60;;;3.40;;
253;SDS011;590;48.772;8.846;2022-08-21T08:53:00;5.27;;;3.33;;
253;SDS011;590;48.772;8.846;2022-08-21T08:55:34;6.57;;;3.10;;
253;SDS011;590;48.772;8.846;2022-08-21T08:58:03;5.10;;;3.60;;
253;SDS011;590;48.772;8.846;2022-08-21T09:00:32;4.77;;;3.63;;
253;SDS011;590;48.772;8.846;2022-08-21T09:03:01;5.73;;;3.90;;
253;SDS011;590;48.772;8.846;2022-08-21T09:05:33;5.80;;;3.53;;
253;SDS011;590;48.772;8.846;2022-08-21T09:08:25;4.67;;;3.30;;
253;SDS011;590;48.772;8.846;2022-08-21T09:11:08;3.83;;;3.50;;
253;SDS011;590;48.772;8.846;2022-08-21T09:13:43;4.63;;;2.93;;
253;SDS011;590;48.772;8.846;2022-08-21T09:16:23;5.07;;;3.90;;
253;SDS011;590;48.772;8.846;2022-08-21T09:19:01;3.50;;;3.30;;
253;SDS011;590;48.772;8.846;2022-08-21T09:21:37;4.33;;;3.10;;
253;SDS011;590;48.772;8.846;2022-08-21T09:24:17;4.93;;;3.20;;
253;SDS011;590;48.772;8.846;2022-08-21T09:26:57;3.27;;;3.10;;
253;SDS011;590;48.772;8.846;2022-08-21T09:29:32;4.43;;;3.93;;
253;SDS011;590;48.772;8.846;2022-08-21T09:32:03;5.57;;;3.70;;
253;SDS011;590;48.772;8.846;2022-08-21T09:34:54;5.53;;;4.10;;
253;SDS011;590;48.772;8.846;2022-08-21T09:37:24;3.77;;;3.27;;
253;SDS011;590;48.772;8.846;2022-08-21T09:39:52;4.73;;;3.20;;
253;SDS011;590;48.772;8.846;2022-08-21T09:42:23;5.33;;;3.60;;
253;SDS011;590;48.772;8.846;2022-08-21T09:45:04;3.17;;;2.97;;
253;SDS011;590;48.772;8.846;2022-08-21T09:47:36;4.40;;;4.03;;
253;SDS011;590;48.772;8.846;2022-08-21T09:50:08;4.60;;;3.43;;
253;SDS011;590;48.772;8.846;2022-08-21T09:52:42;3.50;;;3.10;;
253;SDS011;590;48.772;8.846;2022-08-21T09:55:14;3.53;;;3.30;;
253;SDS011;590;48.772;8.846;2022-08-21T09:58:02;3.70;;;3.20;;
253;SDS011;590;48.772;8.846;2022-08-21T10:00:31;4.30;;;4.00;;
253;SDS011;590;48.772;8.846;2022-08-21T10:03:13;3.73;;;3.53;;
253;SDS011;590;48.772;8.846;2022-08-21T10:05:50;5.40;;;3.77;;
253;SDS011;590;48.772;8.846;2022-08-21T10:08:21;3.80;;;3.60;;
253;SDS011;590;48.772;8.846;2022-08-21T10:10:51;4.00;;;3.37;;
253;SDS011;590;48.772;8.846;2022-08-21T10:13:25;3.57;;;3.37;;
253;SDS011;590;48.772;8.846;2022-08-21T10:16:04;3.40;;;3.20;;
253;SDS011;590;48.772;8.846;2022-08-21T10:18:44;4.17;;;3.23;;
253;SDS011;590;48.772;8.846;2022-08-21T10:21:21;3.73;;;3.27;;
253;SDS011;590;48.772;8.846;2022-08-21T10:23:56;3.03;;;2.80;;
253;SDS011;590;48.772;8.846;2022-08-21T10:26:35;3.67;;;3.07;;
253;SDS011;590;48.772;8.846;2022-08-21T10:29:17;3.40;;;3.20;;
253;SDS011;590;48.772;8.846;2022-08-21T10:31:54;2.90;;;2.70;;
253;SDS011;590;48.772;8.846;2022-08-21T10:34:41;4.03;;;3.20;;
253;SDS011;590;48.772;8.846;2022-08-21T10:37:18;3.90;;;3.50;;
253;SDS011;590;48.772;8.846;2022-08-21T10:39:57;3.87;;;2.80;;
253;SDS011;590;48.772;8.846;2022-08-21T10:42:38;4.10;;;3.90;;
253;SDS011;590;48.772;8.846;2022-08-21T10:45:20;4.03;;;3.47;;
253;SDS011;590;48.772;8.846;2022-08-21T10:47:56;5.30;;;3.20;;
253;SDS011;590;48.772;8.846;2022-08-21T10:50:30;7.90;;;3.60;;
253;SDS011;590;48.772;8.846;2022-08-21T10:56:16;4.30;;;3.20;;
253;SDS011;590;48.772;8.846;2022-08-21T10:58:49;4.70;;;3.50;;
253;SDS011;590;48.772;8.846;2022-08-21T11:01:28;4.23;;;3.70;;
253;SDS011;590;48.772;8.846;2022-08-21T11:04:04;4.20;;;3.10;;
253;SDS011;590;48.772;8.846;2022-08-21T11:06:40;2.93;;;2.73;;
253;SDS011;590;48.772;8.846;2022-08-21T11:09:13;4.70;;;3.67;;
253;SDS011;590;48.772;8.846;2022-08-21T11:11:45;3.07;;;2.87;;
253;SDS011;590;48.772;8.846;2022-08-21T11:14:39;3.10;;;2.93;;
253;SDS011;590;48.772;8.846;2022-08-21T11:17:18;4.53;;;3.50;;
253;SDS011;590;48.772;8.846;2022-08-21T11:19:52;4.20;;;3.13;;
253;SDS011;590;48.772;8.846;2022-08-21T11:22:26;3.00;;;2.80;;
253;SDS011;590;48.772;8.846;2022-08-21T11:25:03;4.13;;;2.83;;
253;SDS011;590;48.772;8.846;2022-08-21T11:27:39;3.60;;;3.40;;
253;SDS011;590;48.772;8.846;2022-08-21T11:30:09;3.03;;;2.87;;
253;SDS011;590;48.772;8.846;2022-08-21T11:32:46;3.13;;;2.93;;
253;SDS011;590;48.772;8.846;2022-08-21T11:35:27;4.27;;;3.40;;
253;SDS011;590;48.772;8.846;2022-08-21T11:38:04;3.20;;;3.07;;
253;SDS011;590;48.772;8.846;2022-08-21T11:40:49;3.00;;;2.80;;
253;SDS011;590;48.772;8.846;2022-08-21T11:43:32;2.83;;;2.40;;
253;SDS011;590;48.772;8.846;2022-08-21T11:46:20;3.10;;;2.63;;
253;SDS011;590;48.772;8.846;2022-08-21T11:49:02;3.37;;;2.60;;
253;SDS011;590;48.772;8.846;2022-08-21T11:51:45;6.80;;;3.53;;
253;SDS011;590;48.772;8.846;2022-08-21T11:54:20;3.17;;;2.97;;
253;SDS011;590;48.772;8.846;2022-08-21T11:56:55;5.17;;;3.37;;
253;SDS011;590;48.772;8.846;2022-08-21T11:59:28;3.30;;;3.10;;
253;SDS011;590;48.772;8.846;2022-08-21T12:02:06;3.23;;;2.87;;
253;SDS011;590;48.772;8.846;2022-08-21T12:04:44;3.20;;;3.00;;
253;SDS011;590;48.772;8.846;2022-08-21T12:07:15;3.47;;;3.03;;
253;SDS011;590;48.772;8.846;2022-08-21T12:09:51;3.00;;;2.80;;
253;SDS011;590;48.772;8.846;2022-08-21T12:12:23;2.80;;;2.60;;
253;SDS011;590;48.772;8.846;2022-08-21T12:15:12;2.67;;;2.53;;
253;SDS011;590;48.772;8.846;2022-08-21T12:17:51;4.53;;;2.60;;
253;SDS011;590;48.772;8.846;2022-08-21T12:23:18;3.60;;;3.30;;
253;SDS011;590;48.772;8.846;2022-08-21T12:26:00;2.97;;;2.77;;
253;SDS011;590;48.772;8.846;2022-08-21T12:28:40;3.87;;;3.70;;
253;SDS011;590;48.772;8.846;2022-08-21T12:31:16;3.27;;;3.07;;
253;SDS011;590;48.772;8.846;2022-08-21T12:33:49;4.27;;;3.10;;
253;SDS011;590;48.772;8.846;2022-08-21T12:36:24;3.93;;;3.30;;
253;SDS011;590;48.772;8.846;2022-08-21T12:38:56;3.40;;;3.20;;
253;SDS011;590;48.772;8.846;2022-08-21T12:41:27;3.13;;;2.93;;
253;SDS011;590;48.772;8.846;2022-08-21T12:44:00;2.77;;;2.60;;
253;SDS011;590;48.772;8.846;2022-08-21T12:46:34;2.97;;;2.80;;
253;SDS011;590;48.772;8.846;2022-08-21T12:49:07;3.40;;;3.27;;
253;SDS011;590;48.772;8.846;2022-08-21T12:51:48;4.23;;;3.00;;
253;SDS011;590;48.772;8.846;2022-08-21T12:54:22;6.07;;;3.20;;
253;SDS011;590;48.772;8.846;2022-08-21T12:56:55;4.10;;;3.43;;
253;SDS011;590;48.772;8.846;2022-08-21T12:59:25;4.67;;;3.47;;
253;SDS011;590;48.772;8.846;2022-08-21T13:01:54;4.33;;;3.40;;
253;SDS011;590;48.772;8.846;2022-08-21T13:04:25;3.20;;;3.03;;
253;SDS011;590;48.772;8.846;2022-08-21T13:07:07;3.43;;;3.23;;
253;SDS011;590;48.772;8.846;2022-08-21T13:09:39;3.73;;;3.40;;
253;SDS011;590;48.772;8.846;2022-08-21T13:12:14;3.37;;;3.03;;
253;SDS011;590;48.772;8.846;2022-08-21T13:14:52;3.20;;;3.00;;
253;SDS011;590;48.772;8.846;2022-08-21T13:17:29;2.90;;;2.70;;
253;SDS011;590;48.772;8.846;2022-08-21T13:19:59;3.03;;;2.83;;
253;SDS011;590;48.772;8.846;2022-08-21T13:22:31;3.73;;;2.83;;
253;SDS011;590;48.772;8.846;2022-08-21T13:25:08;3.13;;;2.93;;
253;SDS011;590;48.772;8.846;2022-08-21T13:27:38;2.77;;;2.57;;
253;SDS011;590;48.772;8.846;2022-08-21T13:30:08;3.40;;;3.13;;
253;SDS011;590;48.772;8.846;2022-08-21T13:32:40;3.70;;;2.90;;
253;SDS011;590;48.772;8.846;2022-08-21T13:35:11;3.60;;;3.03;;
253;SDS011;590;48.772;8.846;2022-08-21T13:37:43;3.50;;;3.27;;
253;SDS011;590;48.772;8.846;2022-08-21T13:40:14;2.90;;;2.70;;
253;SDS011;590;48.772;8.846;2022-08-21T13:42:45;3.43;;;3.23;;
253;SDS011;590;48.772;8.846;2022-08-21T13:45:22;3.53;;;3.00;;
253;SDS011;590;48.772;8.846;2022-08-21T13:47:53;4.17;;;2.93;;
253;SDS011;590;48.772;8.846;2022-08-21T13:50:23;3.33;;;3.13;;
253;SDS011;590;48.772;8.846;2022-08-21T13:52:58;4.47;;;3.40;;
253;SDS011;590;48.772;8.846;2022-08-21T13:55:36;4.73;;;2.83;;
253;SDS011;590;48.772;8.846;2022-08-21T13:58:05;5.30;;;3.60;;
253;SDS011;590;48.772;8.846;2022-08-21T14:00:35;3.23;;;3.03;;
253;SDS011;590;48.772;8.846;2022-08-21T14:03:11;3.77;;;3.40;;
253;SDS011;590;48.772;8.846;2022-08-21T14:05:51;3.00;;;2.80;;
253;SDS011;590;48.772;8.846;2022-08-21T14:08:32;4.10;;;3.37;;
253;SDS011;590;48.772;8.846;2022-08-21T14:11:03;3.40;;;3.20;;
253;SDS011;590;48.772;8.846;2022-08-21T14:13:34;5.20;;;3.70;;
253;SDS011;590;48.772;8.846;2022-08-21T14:16:16;3.53;;;2.77;;
253;SDS011;590;48.772;8.846;2022-08-21T14:18:46;3.20;;;3.00;;
253;SDS011;590;48.772;8.846;2022-08-21T14:21:23;6.77;;;3.20;;
253;SDS011;590;48.772;8.846;2022-08-21T14:24:00;3.23;;;3.03;;
253;SDS011;590;48.772;8.846;2022-08-21T14:26:32;5.40;;;3.50;;
253;SDS011;590;48.772;8.846;2022-08-21T14:29:02;3.50;;;3.30;;
253;SDS011;590;48.772;8.846;2022-08-21T14:31:36;2.90;;;2.77;;
253;SDS011;590;48.772;8.846;2022-08-21T14:34:09;4.03;;;3.13;;
253;SDS011;590;48.772;8.846;2022-08-21T14:36:45;3.50;;;3.30;;
253;SDS011;590;48.772;8.846;2022-08-21T14:39:15;3.47;;;3.10;;
253;SDS011;590;48.772;8.846;2022-08-21T14:41:44;3.20;;;2.93;;
253;SDS011;590;48.772;8.846;2022-08-21T14:44:14;3.40;;;3.10;;
253;SDS011;590;48.772;8.846;2022-08-21T14:46:44;3.60;;;3.40;;
253;SDS011;590;48.772;8.846;2022-08-21T14:49:22;4.33;;;3.20;;
253;SDS011;590;48.772;8.846;2022-08-21T14:51:52;3.47;;;3.27;;
253;SDS011;590;48.772;8.846;2022-08-21T14:54:25;3.90;;;3.30;;
253;SDS011;590;48.772;8.846;2022-08-21T14:56:57;3.57;;;3.40;;
253;SDS011;590;48.772;8.846;2022-08-21T14:59:28;3.10;;;2.90;;
253;SDS011;590;48.772;8.846;2022-08-21T15:01:56;3.63;;;2.70;;
253;SDS011;590;48.772;8.846;2022-08-21T15:04:24;3.30;;;3.03;;
253;SDS011;590;48.772;8.846;2022-08-21T15:06:52;3.10;;;2.90;;
253;SDS011;590;48.772;8.846;2022-08-21T15:09:20;3.80;;;3.20;;
253;SDS011;590;48.772;8.846;2022-08-21T15:11:51;3.10;;;2.90;;
253;SDS011;590;48.772;8.846;2022-08-21T15:14:21;4.00;;;3.00;;
253;SDS011;590;48.772;8.846;2022-08-21T15:16:50;4.90;;;3.40;;
253;SDS011;590;48.772;8.846;2022-08-21T15:19:18;3.27;;;3.07;;
253;SDS011;590;48.772;8.846;2022-08-21T15:21:47;3.20;;;3.00;;
253;SDS011;590;48.772;8.846;2022-08-21T15:24:15;3.27;;;3.07;;
253;SDS011;590;48.772;8.846;2022-08-21T15:26:43;3.40;;;3.20;;
253;SDS011;590;48.772;8.846;2022-08-21T15:29:14;3.17;;;3.07;;
253;SDS011;590;48.772;8.846;2022-08-21T15:31:52;3.40;;;3.20;;
253;SDS011;590;48.772;8.846;2022-08-21T15:34:21;3.97;;;3.50;;
253;SDS011;590;48.772;8.846;2022-08-21T15:36:53;3.50;;;3.33;;
253;SDS011;590;48.772;8.846;2022-08-21T15:39:22;3.30;;;3.10;;
253;SDS011;590;48.772;8.846;2022-08-21T15:41:56;3.43;;;3.13;;
253;SDS011;590;48.772;8.846;2022-08-21T15:44:29;5.63;;;3.33;;
253;SDS011;590;48.772;8.846;2022-08-21T15:46:58;3.47;;;3.27;;
253;SDS011;590;48.772;8.846;2022-08-21T15:49:26;4.63;;;3.60;;
253;SDS011;590;48.772;8.846;2022-08-21T15:51:54;4.13;;;2.90;;
253;SDS011;590;48.772;8.846;2022-08-21T15:54:22;3.80;;;3.43;;
253;SDS011;590;48.772;8.846;2022-08-21T15:56:50;3.50;;;2.97;;
253;SDS011;590;48.772;8.846;2022-08-21T15:59:20;3.87;;;3.70;;
253;SDS011;590;48.772;8.846;2022-08-21T16:01:50;3.20;;;3.00;;
253;SDS011;590;48.772;8.846;2022-08-21T16:04:20;3.23;;;3.03;;
253;SDS011;590;48.772;8.846;2022-08-21T16:06:50;3.00;;;2.80;;
253;SDS011;590;48.772;8.846;2022-08-21T16:09:27;3.57;;;3.40;;
253;SDS011;590;48.772;8.846;2022-08-21T16:11:55;3.53;;;3.30;;
253;SDS011;590;48.772;8.846;2022-08-21T16:14:23;3.90;;;3.53;;
253;SDS011;590;48.772;8.846;2022-08-21T16:16:52;4.77;;;3.63;;
253;SDS011;590;48.772;8.846;2022-08-21T16:19:21;3.13;;;2.93;;